Bugra Tomba — TCEJ — position and weather

sailwx.info

Track history (hours):
 
Tides and Currents Weather Stations Pressure Air Temp Water Temp Dewpoint Dewpoint Depression Visibility Wind Speed Wind Dir Waves Ship Positions

Bugra Tomba

Last reported at 2017-Oct-22 05:21 UTC. Time now 2017-Oct-22 06:43 UTC.
Position N 40°46' E 029°27'.

Length 99 m; draft 6.3 m.

Type: Cargo ship. MMSI: 271000025.

Date/timePositionNaut miles runAvg speedWind from/ knotsBaromVisibWave heightAir tempDewpointWater temp
2017-Oct-22 05:21N 40°46' E 029°27'2 0.1
2017-Oct-20 18:35N 40°44' E 029°25'2 7.4
2017-Oct-20 18:20N 40°43' E 029°22'2 7.0
2017-Oct-20 18:00N 40°43' E 029°19'4 8.4
2017-Oct-20 17:30N 40°43' E 029°14'4 8.4
2017-Oct-20 17:00N 40°43' E 029°08'6 8.4
2017-Oct-20 16:17N 40°42' E 029°00'3 7.9
2017-Oct-20 15:58N 40°42' E 028°57'117 7.8
2017-Oct-20 01:05N 40°13' E 026°29'2 8.0
2017-Oct-20 00:51N 40°12' E 026°26'2 6.4
2017-Oct-20 00:30N 40°11' E 026°24'25 5.5
2017-Oct-19 19:53N 39°50' E 026°05'3 8.0
2017-Oct-19 19:30N 39°48' E 026°06'302 6.8
2017-Oct-17 23:19N 36°05' E 030°26'3 9.0
2017-Oct-17 22:59N 36°06' E 030°29'4 9.3
2017-Oct-17 22:30N 36°06' E 030°35'5 9.3
2017-Oct-17 22:00N 36°07' E 030°40'5 9.6
2017-Oct-17 21:30N 36°07' E 030°46'5 9.1
2017-Oct-17 21:00N 36°08' E 030°52'4 8.7
2017-Oct-17 20:30N 36°09' E 030°57'4 8.5
2017-Oct-17 20:00N 36°09' E 031°02'6 8.3
2017-Oct-17 19:17N 36°10' E 031°10'3 8.5
2017-Oct-17 18:55N 36°10' E 031°13'5 8.6
2017-Oct-17 18:23N 36°11' E 031°19'4 8.6
2017-Oct-17 17:56N 36°11' E 031°24'4 8.6
2017-Oct-17 17:27N 36°11' E 031°29'  
Track history (hours):
 
Tides and Currents Weather Stations Pressure Air Temp Water Temp Dewpoint Dewpoint Depression Visibility Wind Speed Wind Dir Waves Ship Positions

Bugra Tomba

Last reported at 2017-Oct-22 05:21 UTC. Time now 2017-Oct-22 06:43 UTC.
Position N 40°46' E 029°27'.

Length 99 m; draft 6.3 m.

Type: Cargo ship. MMSI: 271000025.

Date/timePositionNaut miles runAvg speedWind from/ knotsBaromVisibWave heightAir tempDewpointWater temp
2017-Oct-22 05:21N 40°46' E 029°27'2 0.1
2017-Oct-20 18:35N 40°44' E 029°25'2 7.4
2017-Oct-20 18:20N 40°43' E 029°22'2 7.0
2017-Oct-20 18:00N 40°43' E 029°19'4 8.4
2017-Oct-20 17:30N 40°43' E 029°14'4 8.4
2017-Oct-20 17:00N 40°43' E 029°08'6 8.4
2017-Oct-20 16:17N 40°42' E 029°00'3 7.9
2017-Oct-20 15:58N 40°42' E 028°57'117 7.8
2017-Oct-20 01:05N 40°13' E 026°29'2 8.0
2017-Oct-20 00:51N 40°12' E 026°26'2 6.4
2017-Oct-20 00:30N 40°11' E 026°24'25 5.5
2017-Oct-19 19:53N 39°50' E 026°05'3 8.0
2017-Oct-19 19:30N 39°48' E 026°06'302 6.8
2017-Oct-17 23:19N 36°05' E 030°26'3 9.0
2017-Oct-17 22:59N 36°06' E 030°29'4 9.3
2017-Oct-17 22:30N 36°06' E 030°35'5 9.3
2017-Oct-17 22:00N 36°07' E 030°40'5 9.6
2017-Oct-17 21:30N 36°07' E 030°46'5 9.1
2017-Oct-17 21:00N 36°08' E 030°52'4 8.7
2017-Oct-17 20:30N 36°09' E 030°57'4 8.5
2017-Oct-17 20:00N 36°09' E 031°02'6 8.3
2017-Oct-17 19:17N 36°10' E 031°10'3 8.5
2017-Oct-17 18:55N 36°10' E 031°13'5 8.6
2017-Oct-17 18:23N 36°11' E 031°19'4 8.6
2017-Oct-17 17:56N 36°11' E 031°24'4 8.6
2017-Oct-17 17:27N 36°11' E 031°29'  

Dump ship's entire track history